Cleveland, Ohio
Traffic Map
Current Weather Conditions
Cleveland, Ohio
Overcast
Overcast

Feels Like: 1°
Wind Chill: Ceiling: 4100
Heat Index: Visibility: 10mi
Dew Point: Wind: 36mph
Humidity: 60% Direction: 220° (SW)
Pressure: 29.65in Gusts: 48mph
Raw Report DataKBKL 242353Z 22031G42KT 10SM OVC041 07/00 A2965 RMK AO2 PK WND 23043/2336 SLP041 T00720000 10156 20072 51054
Traffic Incident Summary
Active as of:
Severity:
Category:
InformationThere was an issue retrieving the traffic information for this location. Please try a different location or try again shortly.
Advertisements
Track Severe Weather on mobile